Coleraine, United Kingdom
Current Conditions -  °F | °C
As of 4:20 PM on Thursday 23 Oct 2014 (Local Time) from EGAE Reporting Station
Rain Showers Rain Showers  
Wind Chill: 15°   Ceiling: 1700
Heat Index: 15°   Visibility: 6mi
Dew Point: 13°   Wind: 18mph
Humidity: 88%   Direction: 220°SW
Pressure: 29.68"   Gusts: 31mph
Location:  55.13°N, 6.67°W
Report Text: EGAE 231520Z 22016G27KT 9999 VCSH FEW010 BKN017 15/13 Q1005
Loading
Personal Weather Stations






























Interactive Weather Map
Tropical Storm Tracking
New forecast layout! Learn more

10-Day Weather Forecast

Advertisements
Track Severe Weather on mobile